This is the latest recevied weather packets stored in our database for station/object VHHH. If no packets are shown the sender has not sent any weather packets the latest 10 day(s).
| Time | Temp. | Humidity | Pressure | Rain* | Wind** | Luminosity | Snow |
|---|---|---|---|---|---|---|---|
| 1777901028 | 23.89° C | 83% | 1015 hPa | - | - | - | - |
| 1777900427 | 23.89° C | 83% | 1015 hPa | - | - | - | - |
| 1777899827 | 23.89° C | 83% | 1015 hPa | - | - | - | - |
| 1777899229 | 23.89° C | 83% | 1009 hPa | - | - | - | - |
| 1777898630 | 23.89° C | 83% | 1009 hPa | - | - | - | - |
| 1777898031 | 23.89° C | 83% | 1009 hPa | - | - | - | - |
| 1777897429 | 23.89° C | 88% | 1009 hPa | - | - | - | - |
| 1777896826 | 23.89° C | 88% | 1009 hPa | - | - | - | - |
| 1777896227 | 23.89° C | 88% | 1008 hPa | - | - | - | - |
| 1777895626 | 23.89° C | 88% | 1008 hPa | - | - | - | - |
| 1777895029 | 23.89° C | 88% | 1008 hPa | - | - | - | - |
| 1777894428 | 23.89° C | 88% | 1007 hPa | - | - | - | - |
| 1777893828 | 23.89° C | 88% | 1007 hPa | - | - | - | - |
| 1777893231 | 23.89° C | 88% | 1007 hPa | - | - | - | - |
| 1777892626 | 23.89° C | 78% | 1007 hPa | - | - | - | - |
| 1777892031 | 23.89° C | 78% | 1007 hPa | - | - | - | - |
| 1777891428 | 23.89° C | 78% | 1007 hPa | - | - | - | - |
| 1777890829 | 23.89° C | 78% | 1007 hPa | - | - | - | - |
| 1777890226 | 25° C | 69% | 1014 hPa | - | - | - | - |
| 1777889625 | 25° C | 69% | 1014 hPa | - | - | - | - |
| 1777889026 | 25° C | 73% | 1007 hPa | - | - | - | - |
| 1777888431 | 25° C | 73% | 1007 hPa | - | - | - | - |
| 1777887828 | 25° C | 73% | 1007 hPa | - | - | - | - |
| 1777887227 | 25° C | 73% | 1007 hPa | - | - | - | - |
| 1777886631 | 25° C | 65% | 1013 hPa | - | - | - | - |
* Rain since midnight (hover to see other rain measurements)
** Current wind speed in m/s (hover to see current wind gust speed)